ANA1212 ROAH-RJFF
Flight info
| Callsign | ANA1212 |
|---|---|
| Flight time | N/A |
| Altitude | 33000 |
| Route | AMAMI Y25 ISKUP |
| Aircraft | B789/H-VGDW/C |
Departure
| Time | 2026-04-25 07:36 |
|---|---|
| Airport | Naha International Airport (ROAH) |
Arrival
| Time | N/A |
|---|---|
| Airport | Fukuoka Airport (RJFF) |
| Time | Latitude | Longitude | Altitude | Speed | Heading |
|---|---|---|---|---|---|
| 2026-04-25 07:15 | 26.21074 | 127.64962 | 27 ft | 0 kts | 88° |
| 2026-04-25 07:29 | 26.21074 | 127.64960 | 27 ft | 2 kts | 88° |
| 2026-04-25 07:29 | 26.21073 | 127.64947 | 27 ft | 2 kts | 88° |
| 2026-04-25 07:30 | 26.21073 | 127.64933 | 25 ft | 2 kts | 88° |
| 2026-04-25 07:30 | 26.21072 | 127.64920 | 25 ft | 2 kts | 88° |
| 2026-04-25 07:30 | 26.21072 | 127.64906 | 32 ft | 3 kts | 89° |
| 2026-04-25 07:30 | 26.21073 | 127.64888 | 31 ft | 2 kts | 112° |
| 2026-04-25 07:31 | 26.21082 | 127.64876 | 31 ft | 2 kts | 156° |
| 2026-04-25 07:31 | 26.21087 | 127.64874 | 31 ft | 0 kts | 167° |
| 2026-04-25 07:32 | 26.21086 | 127.64874 | 31 ft | 0 kts | 167° |
| 2026-04-25 07:32 | 26.21085 | 127.64874 | 31 ft | 0 kts | 173° |
| 2026-04-25 07:33 | 26.21075 | 127.64873 | 31 ft | 3 kts | 184° |
| 2026-04-25 07:33 | 26.21041 | 127.64868 | 29 ft | 7 kts | 188° |
| 2026-04-25 07:33 | 26.20976 | 127.64855 | 27 ft | 11 kts | 199° |
| 2026-04-25 07:33 | 26.20902 | 127.64805 | 30 ft | 12 kts | 232° |
| 2026-04-25 07:34 | 26.20898 | 127.64744 | 27 ft | 9 kts | 274° |
| 2026-04-25 07:34 | 26.20899 | 127.64656 | 22 ft | 14 kts | 266° |
| 2026-04-25 07:34 | 26.20863 | 127.64558 | 25 ft | 14 kts | 224° |
| 2026-04-25 07:34 | 26.20773 | 127.64532 | 27 ft | 14 kts | 180° |
| 2026-04-25 07:35 | 26.20632 | 127.64536 | 27 ft | 31 kts | 176° |
| 2026-04-25 07:35 | 26.20263 | 127.64554 | 27 ft | 88 kts | 175° |
| 2026-04-25 07:35 | 26.19393 | 127.64569 | 26 ft | 160 kts | 182° |
| 2026-04-25 07:35 | 26.18136 | 127.64507 | 314 ft | 192 kts | 182° |
| 2026-04-25 07:36 | 26.16743 | 127.64709 | 721 ft | 203 kts | 175° |
| 2026-04-25 07:36 | 26.15292 | 127.64585 | 1136 ft | 213 kts | 191° |
| 2026-04-25 07:36 | 26.13813 | 127.64088 | 1807 ft | 232 kts | 199° |
| 2026-04-25 07:36 | 26.12259 | 127.63328 | 2544 ft | 255 kts | 207° |
| 2026-04-25 07:37 | 26.10763 | 127.62256 | 3762 ft | 253 kts | 218° |
| 2026-04-25 07:37 | 26.09534 | 127.60863 | 5021 ft | 255 kts | 232° |
| 2026-04-25 07:37 | 26.08725 | 127.59118 | 6278 ft | 256 kts | 249° |
| 2026-04-25 07:37 | 26.08494 | 127.57154 | 7428 ft | 258 kts | 268° |
| 2026-04-25 07:38 | 26.08913 | 127.55187 | 8442 ft | 268 kts | 287° |
| 2026-04-25 07:38 | 26.09963 | 127.53446 | 9446 ft | 278 kts | 306° |
| 2026-04-25 07:38 | 26.11539 | 127.52135 | 10339 ft | 294 kts | 322° |
| 2026-04-25 07:38 | 26.13574 | 127.51295 | 10548 ft | 333 kts | 341° |
| 2026-04-25 07:39 | 26.16018 | 127.51194 | 10800 ft | 368 kts | 4° |
| 2026-04-25 07:39 | 26.18433 | 127.52178 | 11800 ft | 380 kts | 27° |
| 2026-04-25 07:39 | 26.20191 | 127.54378 | 12728 ft | 391 kts | 64° |
| 2026-04-25 07:39 | 26.20456 | 127.57345 | 13509 ft | 392 kts | 108° |
| 2026-04-25 07:40 | 26.19040 | 127.59848 | 14324 ft | 382 kts | 133° |
| 2026-04-25 07:40 | 26.18001 | 127.62622 | 14801 ft | 405 kts | 87° |
| 2026-04-25 07:40 | 26.18159 | 127.65758 | 15301 ft | 414 kts | 103° |
| 2026-04-25 07:40 | 26.17150 | 127.68725 | 16048 ft | 409 kts | 118° |
| 2026-04-25 07:41 | 26.15659 | 127.71430 | 16732 ft | 412 kts | 126° |
| 2026-04-25 07:41 | 26.14324 | 127.74285 | 17486 ft | 422 kts | 115° |
| 2026-04-25 07:41 | 26.13614 | 127.77497 | 18232 ft | 434 kts | 98° |
| 2026-04-25 07:41 | 26.13668 | 127.80875 | 18886 ft | 443 kts | 81° |
| 2026-04-25 07:42 | 26.14349 | 127.84241 | 19449 ft | 450 kts | 77° |
| 2026-04-25 07:42 | 26.15090 | 127.87650 | 20092 ft | 455 kts | 76° |
| 2026-04-25 07:42 | 26.15957 | 127.91054 | 20674 ft | 461 kts | 67° |
| 2026-04-25 07:42 | 26.17435 | 127.94233 | 21225 ft | 465 kts | 53° |
| 2026-04-25 07:43 | 26.19499 | 127.97003 | 21811 ft | 464 kts | 39° |
| 2026-04-25 07:43 | 26.22033 | 127.99209 | 22367 ft | 462 kts | 26° |
| 2026-04-25 07:43 | 26.24789 | 128.01087 | 22869 ft | 468 kts | 26° |
| 2026-04-25 07:43 | 26.27555 | 128.02947 | 23431 ft | 472 kts | 26° |
| 2026-04-25 07:44 | 26.30396 | 128.04851 | 23805 ft | 481 kts | 26° |
| 2026-04-25 07:44 | 26.33261 | 128.06794 | 24308 ft | 484 kts | 26° |
| 2026-04-25 07:44 | 26.36143 | 128.08757 | 24785 ft | 488 kts | 26° |
| 2026-04-25 07:44 | 26.39053 | 128.10727 | 25241 ft | 492 kts | 26° |
| 2026-04-25 07:45 | 26.41991 | 128.12712 | 25686 ft | 495 kts | 26° |
| 2026-04-25 07:45 | 26.44946 | 128.14716 | 26165 ft | 499 kts | 26° |
| 2026-04-25 07:45 | 26.47923 | 128.16740 | 26623 ft | 504 kts | 27° |
| 2026-04-25 07:45 | 26.50941 | 128.18790 | 27000 ft | 509 kts | 27° |
| 2026-04-25 07:46 | 26.53972 | 128.20849 | 27443 ft | 512 kts | 27° |
| 2026-04-25 07:46 | 26.57024 | 128.22924 | 27865 ft | 516 kts | 27° |
| 2026-04-25 07:46 | 26.60098 | 128.25016 | 28274 ft | 519 kts | 27° |
| 2026-04-25 07:46 | 26.63195 | 128.27125 | 28668 ft | 523 kts | 27° |
| 2026-04-25 07:47 | 26.66303 | 128.29262 | 29050 ft | 527 kts | 30° |
| 2026-04-25 07:47 | 26.69182 | 128.31859 | 29362 ft | 537 kts | 44° |
| 2026-04-25 07:47 | 26.71639 | 128.35038 | 29705 ft | 543 kts | 50° |
| 2026-04-25 07:47 | 26.73995 | 128.38359 | 30066 ft | 546 kts | 51° |
| 2026-04-25 07:48 | 26.76352 | 128.41705 | 30366 ft | 549 kts | 51° |
| 2026-04-25 07:48 | 26.78737 | 128.45061 | 30636 ft | 553 kts | 50° |
| 2026-04-25 07:48 | 26.81143 | 128.48430 | 30896 ft | 556 kts | 51° |
| 2026-04-25 07:48 | 26.83560 | 128.51832 | 31180 ft | 559 kts | 51° |
| 2026-04-25 07:49 | 26.85986 | 128.55266 | 31318 ft | 567 kts | 51° |
| 2026-04-25 07:49 | 26.88442 | 128.58737 | 31605 ft | 569 kts | 51° |
| 2026-04-25 07:49 | 26.90925 | 128.62207 | 31847 ft | 572 kts | 47° |
| 2026-04-25 07:49 | 26.93769 | 128.65310 | 32107 ft | 571 kts | 35° |
| 2026-04-25 07:50 | 26.97039 | 128.67798 | 32427 ft | 566 kts | 24° |
| 2026-04-25 07:50 | 27.00490 | 128.69918 | 32742 ft | 566 kts | 24° |
| 2026-04-25 07:50 | 27.03957 | 128.72008 | 33034 ft | 568 kts | 24° |
| 2026-04-25 07:50 | 27.07463 | 128.74111 | 33023 ft | 573 kts | 24° |
| 2026-04-25 07:51 | 27.14442 | 128.78371 | 33014 ft | 569 kts | 24° |
| 2026-04-25 07:51 | 27.21395 | 128.82588 | 33060 ft | 567 kts | 24° |
| 2026-04-25 07:52 | 27.28358 | 128.86833 | 33020 ft | 571 kts | 24° |
| 2026-04-25 07:52 | 27.35338 | 128.91090 | 33026 ft | 570 kts | 24° |
| 2026-04-25 07:53 | 27.42309 | 128.95347 | 33021 ft | 571 kts | 24° |
| 2026-04-25 07:53 | 27.49297 | 128.99622 | 33015 ft | 572 kts | 24° |
| 2026-04-25 07:54 | 27.56244 | 129.03877 | 33021 ft | 572 kts | 24° |
| 2026-04-25 07:54 | 27.63226 | 129.08160 | 33023 ft | 571 kts | 24° |
| 2026-04-25 07:55 | 27.70207 | 129.12449 | 32987 ft | 571 kts | 24° |
| 2026-04-25 07:55 | 27.77166 | 129.16731 | 33024 ft | 569 kts | 24° |
| 2026-04-25 07:56 | 27.84128 | 129.21019 | 33021 ft | 571 kts | 24° |
| 2026-04-25 07:56 | 27.91102 | 129.25324 | 33033 ft | 572 kts | 24° |
| 2026-04-25 07:57 | 27.98086 | 129.29639 | 33026 ft | 572 kts | 24° |
| 2026-04-25 07:57 | 28.05065 | 129.33959 | 33031 ft | 571 kts | 24° |
| 2026-04-25 07:58 | 28.12018 | 129.38269 | 33009 ft | 568 kts | 24° |
| 2026-04-25 07:58 | 28.18962 | 129.42578 | 33031 ft | 570 kts | 24° |
| 2026-04-25 07:59 | 28.25936 | 129.46916 | 33010 ft | 572 kts | 24° |
| 2026-04-25 07:59 | 28.32900 | 129.51250 | 32996 ft | 571 kts | 24° |
| 2026-04-25 08:00 | 28.39863 | 129.55593 | 32987 ft | 571 kts | 23° |
| 2026-04-25 08:00 | 28.43408 | 129.57521 | 32989 ft | 560 kts | 12° |
| 2026-04-25 08:00 | 28.47070 | 129.58737 | 32983 ft | 552 kts | 2° |
| 2026-04-25 08:01 | 28.54614 | 129.59978 | 32986 ft | 546 kts | 359° |
| 2026-04-25 08:01 | 28.62132 | 129.61095 | 33002 ft | 544 kts | 359° |
| 2026-04-25 08:02 | 28.69622 | 129.62252 | 33015 ft | 543 kts | 359° |
| 2026-04-25 08:02 | 28.77109 | 129.63383 | 33028 ft | 543 kts | 359° |
| 2026-04-25 08:03 | 28.84582 | 129.64533 | 33024 ft | 540 kts | 358° |
| 2026-04-25 08:03 | 28.92023 | 129.65665 | 33024 ft | 540 kts | 358° |
| 2026-04-25 08:04 | 28.99481 | 129.66810 | 33025 ft | 541 kts | 358° |
| 2026-04-25 08:04 | 29.06929 | 129.67953 | 33028 ft | 538 kts | 358° |
| 2026-04-25 08:05 | 29.14342 | 129.69090 | 33026 ft | 537 kts | 358° |
| 2026-04-25 08:05 | 29.21758 | 129.70234 | 33048 ft | 538 kts | 358° |
| 2026-04-25 08:06 | 29.29169 | 129.71376 | 33025 ft | 537 kts | 358° |
| 2026-04-25 08:06 | 29.36571 | 129.72519 | 33023 ft | 537 kts | 358° |
| 2026-04-25 08:07 | 29.42727 | 129.73470 | 33053 ft | 538 kts | 358° |
| 2026-04-25 08:07 | 29.50141 | 129.74622 | 33027 ft | 537 kts | 358° |
| 2026-04-25 08:08 | 29.57541 | 129.75768 | 33025 ft | 536 kts | 358° |
| 2026-04-25 08:08 | 29.64941 | 129.76918 | 33025 ft | 536 kts | 358° |
| 2026-04-25 08:09 | 29.72333 | 129.78068 | 33027 ft | 536 kts | 358° |
| 2026-04-25 08:09 | 29.79729 | 129.79221 | 33028 ft | 536 kts | 358° |
| 2026-04-25 08:10 | 29.87120 | 129.80374 | 33027 ft | 536 kts | 359° |
| 2026-04-25 08:10 | 29.94496 | 129.81527 | 33023 ft | 536 kts | 358° |
| 2026-04-25 08:11 | 30.01871 | 129.82607 | 33042 ft | 531 kts | 355° |
| 2026-04-25 08:11 | 30.09246 | 129.83401 | 33036 ft | 532 kts | 356° |
| 2026-04-25 08:12 | 30.16587 | 129.84200 | 33037 ft | 529 kts | 355° |
| 2026-04-25 08:12 | 30.23914 | 129.84983 | 33031 ft | 529 kts | 356° |
| 2026-04-25 08:13 | 30.31250 | 129.85785 | 33031 ft | 529 kts | 355° |
| 2026-04-25 08:14 | 30.42235 | 129.86974 | 33030 ft | 528 kts | 355° |
| 2026-04-25 08:14 | 30.49565 | 129.87770 | 33033 ft | 531 kts | 355° |
| 2026-04-25 08:15 | 30.56936 | 129.88573 | 33044 ft | 532 kts | 355° |
| 2026-04-25 08:15 | 30.64317 | 129.89379 | 33047 ft | 532 kts | 355° |
| 2026-04-25 08:16 | 30.71691 | 129.90183 | 33050 ft | 533 kts | 354° |
| 2026-04-25 08:16 | 30.79080 | 129.90993 | 33049 ft | 534 kts | 354° |
| 2026-04-25 08:17 | 30.86480 | 129.91802 | 33046 ft | 534 kts | 354° |
| 2026-04-25 08:17 | 30.93871 | 129.92616 | 33050 ft | 534 kts | 354° |
| 2026-04-25 08:18 | 31.01258 | 129.93427 | 33055 ft | 532 kts | 354° |
| 2026-04-25 08:18 | 31.08629 | 129.94239 | 33048 ft | 532 kts | 354° |
| 2026-04-25 08:19 | 31.16018 | 129.95052 | 33053 ft | 534 kts | 354° |
| 2026-04-25 08:19 | 31.23421 | 129.95872 | 33055 ft | 535 kts | 354° |
| 2026-04-25 08:20 | 31.30822 | 129.96618 | 33106 ft | 530 kts | 351° |
| 2026-04-25 08:20 | 31.38214 | 129.97215 | 33058 ft | 532 kts | 352° |
| 2026-04-25 08:21 | 31.45585 | 129.97796 | 33056 ft | 530 kts | 352° |
| 2026-04-25 08:21 | 31.52946 | 129.98376 | 33059 ft | 531 kts | 352° |
| 2026-04-25 08:22 | 31.60322 | 129.98966 | 33060 ft | 531 kts | 352° |
| 2026-04-25 08:22 | 31.67693 | 129.99548 | 33063 ft | 531 kts | 352° |
| 2026-04-25 08:23 | 31.75068 | 130.00139 | 33064 ft | 531 kts | 352° |
| 2026-04-25 08:23 | 31.82442 | 130.00725 | 33065 ft | 531 kts | 352° |
| 2026-04-25 08:24 | 31.89814 | 130.01315 | 33065 ft | 531 kts | 352° |
| 2026-04-25 08:24 | 31.97192 | 130.01904 | 33062 ft | 531 kts | 352° |
| 2026-04-25 08:25 | 32.04559 | 130.02497 | 33062 ft | 531 kts | 352° |
| 2026-04-25 08:25 | 32.11931 | 130.03088 | 33033 ft | 531 kts | 352° |
| 2026-04-25 08:26 | 32.19319 | 130.03685 | 33060 ft | 533 kts | 352° |
| 2026-04-25 08:26 | 32.26718 | 130.04282 | 33063 ft | 533 kts | 352° |
| 2026-04-25 08:27 | 32.34085 | 130.04883 | 32455 ft | 528 kts | 352° |
| 2026-04-25 08:27 | 32.37753 | 130.05175 | 31740 ft | 528 kts | 353° |
| 2026-04-25 08:27 | 32.41413 | 130.05470 | 31070 ft | 526 kts | 353° |
| 2026-04-25 08:27 | 32.45064 | 130.05768 | 30399 ft | 525 kts | 354° |
| 2026-04-25 08:28 | 32.48697 | 130.06065 | 29695 ft | 522 kts | 354° |
| 2026-04-25 08:28 | 32.52303 | 130.06362 | 29033 ft | 517 kts | 355° |
| 2026-04-25 08:28 | 32.55875 | 130.06650 | 28390 ft | 512 kts | 355° |
| 2026-04-25 08:28 | 32.59400 | 130.06837 | 27762 ft | 499 kts | 349° |
| 2026-04-25 08:29 | 32.62798 | 130.06423 | 27143 ft | 482 kts | 340° |
| 2026-04-25 08:29 | 32.66036 | 130.05612 | 26543 ft | 474 kts | 339° |
| 2026-04-25 08:29 | 32.69246 | 130.04804 | 25960 ft | 468 kts | 340° |
| 2026-04-25 08:29 | 32.72413 | 130.03998 | 25379 ft | 463 kts | 340° |
| 2026-04-25 08:30 | 32.75549 | 130.03196 | 24824 ft | 459 kts | 340° |
| 2026-04-25 08:30 | 32.78656 | 130.02411 | 24253 ft | 455 kts | 341° |
| 2026-04-25 08:30 | 32.81741 | 130.01625 | 23702 ft | 451 kts | 341° |
| 2026-04-25 08:30 | 32.84790 | 130.00844 | 23092 ft | 446 kts | 341° |
| 2026-04-25 08:31 | 32.87803 | 130.00076 | 22556 ft | 440 kts | 342° |
| 2026-04-25 08:31 | 32.90773 | 129.99321 | 22021 ft | 433 kts | 342° |
| 2026-04-25 08:31 | 32.93699 | 129.98575 | 21501 ft | 427 kts | 342° |
| 2026-04-25 08:31 | 32.96588 | 129.97835 | 20981 ft | 422 kts | 342° |
| 2026-04-25 08:32 | 32.99436 | 129.97107 | 20478 ft | 416 kts | 342° |
| 2026-04-25 08:32 | 33.02250 | 129.96388 | 19972 ft | 411 kts | 343° |
| 2026-04-25 08:32 | 33.05034 | 129.95676 | 19471 ft | 407 kts | 343° |
| 2026-04-25 08:32 | 33.07790 | 129.94970 | 18977 ft | 402 kts | 343° |
| 2026-04-25 08:33 | 33.10508 | 129.94274 | 18504 ft | 397 kts | 343° |
| 2026-04-25 08:33 | 33.13193 | 129.93585 | 17993 ft | 392 kts | 343° |
| 2026-04-25 08:33 | 33.15840 | 129.92906 | 17525 ft | 385 kts | 343° |
| 2026-04-25 08:33 | 33.18439 | 129.92239 | 17061 ft | 379 kts | 344° |
| 2026-04-25 08:34 | 33.20993 | 129.91582 | 16621 ft | 373 kts | 345° |
| 2026-04-25 08:34 | 33.23510 | 129.90935 | 16169 ft | 367 kts | 345° |
| 2026-04-25 08:34 | 33.25985 | 129.90300 | 15725 ft | 361 kts | 345° |
| 2026-04-25 08:34 | 33.28434 | 129.89669 | 15287 ft | 360 kts | 345° |
| 2026-04-25 08:35 | 33.30884 | 129.89038 | 14854 ft | 359 kts | 345° |
| 2026-04-25 08:35 | 33.33326 | 129.88410 | 14421 ft | 358 kts | 346° |
| 2026-04-25 08:35 | 33.35750 | 129.87785 | 14002 ft | 356 kts | 346° |
| 2026-04-25 08:35 | 33.38157 | 129.87165 | 13555 ft | 351 kts | 346° |
| 2026-04-25 08:36 | 33.40526 | 129.86554 | 13135 ft | 347 kts | 346° |
| 2026-04-25 08:36 | 33.42854 | 129.85953 | 12717 ft | 348 kts | 346° |
| 2026-04-25 08:36 | 33.45226 | 129.85340 | 12320 ft | 349 kts | 346° |
| 2026-04-25 08:36 | 33.47588 | 129.84866 | 11905 ft | 342 kts | 359° |
| 2026-04-25 08:37 | 33.49935 | 129.85306 | 11527 ft | 344 kts | 14° |
| 2026-04-25 08:37 | 33.52221 | 129.86082 | 11106 ft | 338 kts | 17° |
| 2026-04-25 08:37 | 33.54440 | 129.86925 | 10791 ft | 329 kts | 17° |
| 2026-04-25 08:37 | 33.56578 | 129.87710 | 10666 ft | 314 kts | 16° |
| 2026-04-25 08:38 | 33.58627 | 129.88428 | 10529 ft | 300 kts | 16° |
| 2026-04-25 08:38 | 33.60612 | 129.89127 | 10391 ft | 287 kts | 16° |
| 2026-04-25 08:38 | 33.62530 | 129.89814 | 10181 ft | 290 kts | 16° |
| 2026-04-25 08:38 | 33.64435 | 129.90497 | 9919 ft | 286 kts | 17° |
| 2026-04-25 08:39 | 33.66320 | 129.91172 | 9643 ft | 282 kts | 17° |
| 2026-04-25 08:39 | 33.68243 | 129.91859 | 9387 ft | 285 kts | 17° |
| 2026-04-25 08:39 | 33.70118 | 129.92530 | 9122 ft | 278 kts | 17° |
| 2026-04-25 08:39 | 33.71975 | 129.93195 | 8867 ft | 280 kts | 17° |
| 2026-04-25 08:40 | 33.73825 | 129.93856 | 8617 ft | 283 kts | 17° |
| 2026-04-25 08:40 | 33.75690 | 129.94524 | 8338 ft | 280 kts | 18° |
| 2026-04-25 08:40 | 33.77580 | 129.95191 | 8076 ft | 277 kts | 14° |
| 2026-04-25 08:40 | 33.79445 | 129.95355 | 8026 ft | 272 kts | 1° |
| 2026-04-25 08:41 | 33.81378 | 129.95525 | 8037 ft | 285 kts | 7° |
| 2026-04-25 08:41 | 33.83356 | 129.95756 | 8034 ft | 284 kts | 5° |
| 2026-04-25 08:41 | 33.85307 | 129.95916 | 8042 ft | 280 kts | 4° |
| 2026-04-25 08:41 | 33.87263 | 129.96075 | 8037 ft | 284 kts | 9° |
| 2026-04-25 08:42 | 33.89070 | 129.96941 | 8047 ft | 280 kts | 33° |
| 2026-04-25 08:42 | 33.90802 | 129.98003 | 8041 ft | 280 kts | 25° |
| 2026-04-25 08:42 | 33.92589 | 129.98968 | 8048 ft | 281 kts | 26° |
| 2026-04-25 08:42 | 33.94342 | 129.99993 | 8046 ft | 278 kts | 27° |
| 2026-04-25 08:43 | 33.96062 | 130.01039 | 8048 ft | 277 kts | 28° |
| 2026-04-25 08:43 | 33.97789 | 130.02108 | 8058 ft | 280 kts | 33° |
| 2026-04-25 08:43 | 33.99123 | 130.03715 | 8040 ft | 268 kts | 57° |
| 2026-04-25 08:43 | 34.00349 | 130.05431 | 8046 ft | 271 kts | 49° |
| 2026-04-25 08:44 | 34.01532 | 130.07174 | 8023 ft | 266 kts | 70° |
| 2026-04-25 08:44 | 34.01755 | 130.09335 | 8060 ft | 263 kts | 102° |
| 2026-04-25 08:44 | 34.01161 | 130.11397 | 8046 ft | 259 kts | 123° |
| 2026-04-25 08:44 | 33.99985 | 130.12954 | 7874 ft | 247 kts | 143° |
| 2026-04-25 08:45 | 33.98533 | 130.14133 | 7660 ft | 255 kts | 146° |
| 2026-04-25 08:45 | 33.97080 | 130.15336 | 7420 ft | 256 kts | 144° |
| 2026-04-25 08:45 | 33.95658 | 130.16605 | 7177 ft | 250 kts | 143° |
| 2026-04-25 08:45 | 33.94267 | 130.17859 | 6936 ft | 248 kts | 143° |
| 2026-04-25 08:46 | 33.92908 | 130.19065 | 6681 ft | 233 kts | 143° |
| 2026-04-25 08:46 | 33.91625 | 130.20195 | 6434 ft | 220 kts | 143° |
| 2026-04-25 08:46 | 33.90410 | 130.21267 | 6228 ft | 217 kts | 143° |
| 2026-04-25 08:46 | 33.89173 | 130.22365 | 6039 ft | 231 kts | 144° |
| 2026-04-25 08:47 | 33.87879 | 130.23508 | 5829 ft | 227 kts | 144° |
| 2026-04-25 08:47 | 33.86619 | 130.24621 | 5607 ft | 223 kts | 144° |
| 2026-04-25 08:47 | 33.85361 | 130.25731 | 5332 ft | 219 kts | 144° |
| 2026-04-25 08:47 | 33.84186 | 130.26770 | 5297 ft | 202 kts | 144° |
| 2026-04-25 08:48 | 33.83054 | 130.27770 | 4775 ft | 203 kts | 144° |
| 2026-04-25 08:48 | 33.81930 | 130.28761 | 4241 ft | 201 kts | 144° |
| 2026-04-25 08:48 | 33.80785 | 130.29771 | 3682 ft | 202 kts | 144° |
| 2026-04-25 08:48 | 33.79638 | 130.30692 | 3178 ft | 201 kts | 150° |
| 2026-04-25 08:49 | 33.78480 | 130.31475 | 3267 ft | 189 kts | 150° |
| 2026-04-25 08:49 | 33.77292 | 130.32286 | 3299 ft | 202 kts | 150° |
| 2026-04-25 08:49 | 33.76090 | 130.33107 | 3298 ft | 198 kts | 150° |
| 2026-04-25 08:49 | 33.74874 | 130.33937 | 3311 ft | 203 kts | 150° |
| 2026-04-25 08:50 | 33.73644 | 130.34778 | 3134 ft | 204 kts | 150° |
| 2026-04-25 08:50 | 33.72409 | 130.35619 | 2869 ft | 203 kts | 150° |
| 2026-04-25 08:50 | 33.71276 | 130.36390 | 2610 ft | 199 kts | 149° |
| 2026-04-25 08:50 | 33.70066 | 130.37215 | 2347 ft | 198 kts | 149° |
| 2026-04-25 08:51 | 33.69265 | 130.37765 | 2170 ft | 195 kts | 148° |
| 2026-04-25 08:51 | 33.67673 | 130.38856 | 1825 ft | 199 kts | 149° |
| 2026-04-25 08:51 | 33.66909 | 130.39376 | 1658 ft | 181 kts | 149° |
| 2026-04-25 08:51 | 33.65576 | 130.40295 | 1342 ft | 156 kts | 148° |
| 2026-04-25 08:52 | 33.64650 | 130.40929 | 1140 ft | 153 kts | 148° |
| 2026-04-25 08:52 | 33.64045 | 130.41344 | 1014 ft | 150 kts | 149° |
| 2026-04-25 08:52 | 33.63120 | 130.41986 | 815 ft | 151 kts | 151° |
| 2026-04-25 08:52 | 33.62228 | 130.42585 | 639 ft | 152 kts | 153° |
| 2026-04-25 08:53 | 33.61302 | 130.43216 | 431 ft | 154 kts | 153° |
| 2026-04-25 08:53 | 33.60391 | 130.43843 | 233 ft | 147 kts | 155° |